SAS36P EDDH-ENGM
Flight info
| Callsign | SAS36P |
|---|---|
| Flight time | N/A |
| Altitude | 34000 |
| Route | SOKWO1G SOKWO T814 EXNEL M105 AMRAK DCT NERDO/N0447F360 DCT PIPEX/N0445F370 M609 RIPAM RIPAM3L |
| Aircraft | A320/M-SDE3FGHIRWY/LB1 |
Departure
| Time | 2026-05-05 15:37 |
|---|---|
| Airport | Hamburg Helmut Schmidt Airport (EDDH) |
Arrival
| Time | N/A |
|---|---|
| Airport | Oslo-Gardermoen International Airport (ENGM) |
| Time | Latitude | Longitude | Altitude | Speed | Heading |
|---|---|---|---|---|---|
| 2026-05-05 15:15 | 53.63331 | 10.00348 | 48 ft | 0 kts | 86° |
| 2026-05-05 15:26 | 53.63331 | 10.00343 | 48 ft | 2 kts | 86° |
| 2026-05-05 15:27 | 53.63330 | 10.00314 | 47 ft | 3 kts | 86° |
| 2026-05-05 15:27 | 53.63328 | 10.00285 | 46 ft | 2 kts | 86° |
| 2026-05-05 15:27 | 53.63327 | 10.00256 | 43 ft | 2 kts | 86° |
| 2026-05-05 15:27 | 53.63326 | 10.00227 | 44 ft | 2 kts | 86° |
| 2026-05-05 15:28 | 53.63325 | 10.00198 | 44 ft | 2 kts | 86° |
| 2026-05-05 15:28 | 53.63325 | 10.00170 | 44 ft | 2 kts | 133° |
| 2026-05-05 15:28 | 53.63332 | 10.00159 | 43 ft | 0 kts | 168° |
| 2026-05-05 15:30 | 53.63327 | 10.00161 | 43 ft | 2 kts | 167° |
| 2026-05-05 15:30 | 53.63303 | 10.00168 | 46 ft | 5 kts | 171° |
| 2026-05-05 15:31 | 53.63257 | 10.00174 | 48 ft | 8 kts | 173° |
| 2026-05-05 15:31 | 53.63193 | 10.00182 | 48 ft | 11 kts | 175° |
| 2026-05-05 15:31 | 53.63114 | 10.00192 | 48 ft | 11 kts | 178° |
| 2026-05-05 15:31 | 53.63045 | 10.00157 | 48 ft | 9 kts | 210° |
| 2026-05-05 15:32 | 53.62992 | 10.00102 | 47 ft | 8 kts | 214° |
| 2026-05-05 15:32 | 53.62948 | 10.00049 | 48 ft | 8 kts | 219° |
| 2026-05-05 15:32 | 53.62913 | 9.99965 | 47 ft | 10 kts | 243° |
| 2026-05-05 15:32 | 53.62875 | 9.99838 | 44 ft | 13 kts | 243° |
| 2026-05-05 15:33 | 53.62872 | 9.99745 | 45 ft | 8 kts | 317° |
| 2026-05-05 15:33 | 53.62881 | 9.99737 | 45 ft | 0 kts | 330° |
| 2026-05-05 15:36 | 53.62907 | 9.99712 | 45 ft | 23 kts | 331° |
| 2026-05-05 15:36 | 53.63268 | 9.99400 | 47 ft | 90 kts | 333° |
| 2026-05-05 15:36 | 53.63986 | 9.98779 | 51 ft | 139 kts | 333° |
| 2026-05-05 15:36 | 53.64949 | 9.97934 | 243 ft | 161 kts | 332° |
| 2026-05-05 15:37 | 53.65895 | 9.97009 | 855 ft | 156 kts | 330° |
| 2026-05-05 15:37 | 53.66817 | 9.96129 | 1413 ft | 149 kts | 337° |
| 2026-05-05 15:37 | 53.67757 | 9.95357 | 1798 ft | 156 kts | 338° |
| 2026-05-05 15:37 | 53.68787 | 9.94623 | 2201 ft | 169 kts | 349° |
| 2026-05-05 15:38 | 53.70017 | 9.94516 | 2561 ft | 188 kts | 5° |
| 2026-05-05 15:38 | 53.71399 | 9.94606 | 2971 ft | 206 kts | 3° |
| 2026-05-05 15:38 | 53.72851 | 9.94716 | 3606 ft | 211 kts | 11° |
| 2026-05-05 15:38 | 53.74269 | 9.95498 | 4155 ft | 224 kts | 28° |
| 2026-05-05 15:39 | 53.75654 | 9.96989 | 4494 ft | 248 kts | 33° |
| 2026-05-05 15:39 | 53.77154 | 9.98645 | 5071 ft | 263 kts | 32° |
| 2026-05-05 15:39 | 53.78707 | 10.00361 | 5822 ft | 270 kts | 32° |
| 2026-05-05 15:39 | 53.80301 | 10.02114 | 6586 ft | 276 kts | 31° |
| 2026-05-05 15:40 | 53.81909 | 10.03881 | 7316 ft | 282 kts | 31° |
| 2026-05-05 15:40 | 53.83573 | 10.05703 | 8066 ft | 287 kts | 31° |
| 2026-05-05 15:40 | 53.85265 | 10.07555 | 8830 ft | 292 kts | 31° |
| 2026-05-05 15:40 | 53.86999 | 10.09388 | 9573 ft | 296 kts | 25° |
| 2026-05-05 15:41 | 53.88933 | 10.10639 | 10200 ft | 302 kts | 11° |
| 2026-05-05 15:41 | 53.91087 | 10.11065 | 10386 ft | 321 kts | 355° |
| 2026-05-05 15:41 | 53.93343 | 10.10460 | 10653 ft | 335 kts | 342° |
| 2026-05-05 15:41 | 53.95622 | 10.09446 | 11225 ft | 341 kts | 342° |
| 2026-05-05 15:42 | 53.97940 | 10.08456 | 11868 ft | 345 kts | 343° |
| 2026-05-05 15:42 | 54.00283 | 10.07475 | 12539 ft | 349 kts | 343° |
| 2026-05-05 15:42 | 54.02654 | 10.06481 | 13209 ft | 352 kts | 343° |
| 2026-05-05 15:42 | 54.05050 | 10.05471 | 13855 ft | 356 kts | 343° |
| 2026-05-05 15:43 | 54.07433 | 10.04471 | 14436 ft | 359 kts | 342° |
| 2026-05-05 15:43 | 54.09787 | 10.03109 | 15041 ft | 357 kts | 331° |
| 2026-05-05 15:43 | 54.11916 | 10.00999 | 15644 ft | 354 kts | 320° |
| 2026-05-05 15:43 | 54.13750 | 9.98232 | 16247 ft | 351 kts | 309° |
| 2026-05-05 15:44 | 54.15387 | 9.95130 | 16866 ft | 352 kts | 308° |
| 2026-05-05 15:44 | 54.17028 | 9.92009 | 17505 ft | 354 kts | 308° |
| 2026-05-05 15:44 | 54.18676 | 9.88868 | 18135 ft | 356 kts | 308° |
| 2026-05-05 15:44 | 54.20332 | 9.85706 | 18694 ft | 358 kts | 308° |
| 2026-05-05 15:45 | 54.21999 | 9.82522 | 19228 ft | 361 kts | 308° |
| 2026-05-05 15:45 | 54.23689 | 9.79309 | 19757 ft | 365 kts | 310° |
| 2026-05-05 15:45 | 54.25625 | 9.76414 | 20284 ft | 374 kts | 319° |
| 2026-05-05 15:45 | 54.27738 | 9.73788 | 20798 ft | 377 kts | 319° |
| 2026-05-05 15:46 | 54.29868 | 9.71133 | 21299 ft | 380 kts | 319° |
| 2026-05-05 15:46 | 54.32012 | 9.68454 | 21788 ft | 383 kts | 319° |
| 2026-05-05 15:46 | 54.34246 | 9.65895 | 22258 ft | 391 kts | 327° |
| 2026-05-05 15:46 | 54.36787 | 9.64077 | 22752 ft | 402 kts | 339° |